Time;durP1;ratioP1;P1;durP2;ratioP2;P2;SDS_P1;SDS_P2;PMS_P1;PMS_P2;Temp;Humidity;BMP_temperature;BMP_pressure;BME280_temperature;BME280_humidity;BME280_pressure;Samples;Min_cycle;Max_cycle;Signal;HPM_P1;HPM_P2
2023/03/27 00:00:59;;;;;;;1.40;0.90;;;7.40;79.80;;;;;;5008378;28;20103;-62
2023/03/27 00:03:26;;;;;;;0.93;0.70;;;7.40;80.00;;;;;;5009393;28;20058;-62
2023/03/27 00:06:00;;;;;;;1.48;0.70;;;7.30;79.80;;;;;;5007219;28;20037;-61
2023/03/27 00:08:26;;;;;;;0.93;0.90;;;7.40;80.50;;;;;;5008820;28;20129;-62
2023/03/27 00:10:52;;;;;;;1.73;0.68;;;7.40;80.10;;;;;;5006174;28;20896;-61
2023/03/27 00:13:18;;;;;;;1.15;0.60;;;7.40;80.30;;;;;;5001708;28;20099;-61
2023/03/27 00:15:45;;;;;;;0.60;0.60;;;7.40;80.40;;;;;;5005584;28;20386;-61
2023/03/27 00:18:12;;;;;;;0.65;0.60;;;7.40;80.80;;;;;;5008526;28;20036;-61
2023/03/27 00:20:38;;;;;;;1.00;0.73;;;7.40;80.50;;;;;;5005540;28;20030;-61
2023/03/27 00:23:05;;;;;;;0.80;0.70;;;7.40;80.60;;;;;;5005636;28;20060;-61
2023/03/27 00:25:31;;;;;;;0.82;0.60;;;7.40;80.60;;;;;;5006041;28;20128;-61
2023/03/27 00:27:57;;;;;;;0.60;0.60;;;7.40;80.70;;;;;;5008795;28;20117;-62
2023/03/27 00:30:28;;;;;;;0.88;0.70;;;7.40;80.60;;;;;;4999368;28;20037;-62
2023/03/27 00:32:55;;;;;;;2.28;0.55;;;7.50;81.20;;;;;;5006850;28;20060;-62
2023/03/27 00:35:22;;;;;;;1.20;0.63;;;7.50;81.20;;;;;;5006069;28;20422;-60
2023/03/27 00:37:47;;;;;;;0.98;0.88;;;7.50;81.00;;;;;;5010100;28;20546;-61
2023/03/27 00:40:14;;;;;;;1.17;0.80;;;7.50;81.20;;;;;;5007540;28;20045;-62
2023/03/27 00:42:40;;;;;;;1.05;0.80;;;7.50;81.20;;;;;;5008938;28;20088;-61
2023/03/27 00:45:13;;;;;;;1.95;0.70;;;7.50;81.30;;;;;;5005010;28;20429;-62
2023/03/27 00:47:39;;;;;;;1.13;0.90;;;7.50;81.20;;;;;;5005927;28;20428;-62
2023/03/27 00:50:10;;;;;;;1.25;1.10;;;7.50;81.40;;;;;;5007340;28;20037;-61
2023/03/27 00:52:39;;;;;;;1.42;0.90;;;7.50;82.40;;;;;;5005919;28;20045;-62
2023/03/27 00:55:13;;;;;;;2.97;1.20;;;7.50;82.00;;;;;;5006280;28;20488;-62
2023/03/27 00:57:39;;;;;;;1.40;1.30;;;7.50;81.90;;;;;;5009631;28;20033;-61
2023/03/27 01:00:12;;;;;;;1.73;1.40;;;7.50;82.00;;;;;;5012938;28;20413;-62
2023/03/27 01:02:39;;;;;;;2.00;1.65;;;7.50;82.20;;;;;;5013249;28;20502;-62
2023/03/27 01:05:08;;;;;;;1.70;1.60;;;7.50;82.40;;;;;;5010919;28;20338;-61
2023/03/27 01:07:34;;;;;;;1.95;1.83;;;7.50;82.20;;;;;;5007341;28;20038;-61
2023/03/27 01:10:00;;;;;;;2.03;1.88;;;7.50;83.10;;;;;;5011336;28;20107;-61
2023/03/27 01:12:33;;;;;;;2.40;1.88;;;7.50;82.50;;;;;;5011348;28;20498;-61
2023/03/27 01:15:11;;;;;;;2.10;2.00;;;7.50;82.70;;;;;;5011741;28;20072;-62
2023/03/27 01:17:51;;;;;;;2.00;1.90;;;7.50;82.60;;;;;;5011472;28;20054;-62
2023/03/27 01:20:55;;;;;;;2.17;1.98;;;7.50;83.30;;;;;;5004060;28;20063;-63
2023/03/27 01:23:24;;;;;;;3.70;1.95;;;7.50;83.60;;;;;;5008230;28;20797;-60
2023/03/27 01:25:49;;;;;;;2.50;2.03;;;7.50;83.10;;;;;;5012516;28;20034;-61
2023/03/27 01:28:41;;;;;;;1.45;1.35;;;7.50;82.90;;;;;;5007053;28;20053;-62
2023/03/27 01:31:18;;;;;;;1.92;1.20;;;7.50;83.80;;;;;;5006740;28;20034;-62
2023/03/27 01:34:13;;;;;;;1.40;1.30;;;7.50;84.60;;;;;;5008080;28;20037;-62
2023/03/27 01:36:57;;;;;;;2.15;1.20;;;7.40;84.30;;;;;;5007540;28;20445;-61
2023/03/27 01:39:33;;;;;;;2.00;1.05;;;7.40;83.80;;;;;;5008898;28;20172;-61
2023/03/27 01:41:59;;;;;;;1.58;0.95;;;7.40;83.40;;;;;;5011177;28;20493;-62
2023/03/27 01:44:33;;;;;;;2.42;1.05;;;7.40;83.60;;;;;;5011171;28;20034;-62
2023/03/27 01:47:13;;;;;;;0.95;0.80;;;7.40;84.30;;;;;;5006560;28;20038;-62
2023/03/27 01:50:03;;;;;;;2.40;1.40;;;7.40;84.10;;;;;;5004942;28;20124;-61
2023/03/27 01:52:34;;;;;;;1.27;1.15;;;7.40;84.50;;;;;;5008976;28;20033;-62
2023/03/27 01:55:03;;;;;;;1.23;1.13;;;7.40;84.10;;;;;;5010497;28;20423;-62
2023/03/27 01:58:02;;;;;;;1.73;1.20;;;7.40;84.10;;;;;;5013323;28;21326;-62
2023/03/27 02:00:29;;;;;;;1.40;1.30;;;7.40;86.20;;;;;;5008378;28;20040;-62
2023/03/27 02:02:58;;;;;;;1.40;1.30;;;7.40;84.60;;;;;;5010514;28;20041;-61
2023/03/27 02:05:45;;;;;;;1.95;1.35;;;7.40;84.90;;;;;;5009449;28;20034;-61
2023/03/27 02:08:18;;;;;;;1.60;1.50;;;7.40;85.50;;;;;;5010491;28;20038;-62
2023/03/27 02:10:49;;;;;;;1.92;1.20;;;7.40;85.10;;;;;;5012687;28;20581;-63
2023/03/27 02:13:21;;;;;;;1.40;1.20;;;7.30;85.10;;;;;;5023172;28;20026;-62
2023/03/27 02:15:49;;;;;;;1.55;1.45;;;7.30;85.20;;;;;;5005882;28;20124;-62
2023/03/27 02:18:21;;;;;;;1.30;1.20;;;7.30;85.30;;;;;;5006905;28;20061;-61
2023/03/27 02:20:47;;;;;;;1.20;0.95;;;7.30;85.70;;;;;;5009891;28;20152;-62
2023/03/27 02:23:12;;;;;;;1.20;0.80;;;7.20;85.70;;;;;;5012009;28;20472;-62
2023/03/27 02:25:40;;;;;;;0.75;0.60;;;7.20;85.40;;;;;;5012215;28;20100;-62
2023/03/27 02:28:32;;;;;;;0.85;0.40;;;7.20;85.80;;;;;;5010118;28;20136;-62
2023/03/27 02:31:29;;;;;;;0.30;0.30;;;7.20;86.80;;;;;;5004954;28;20033;-61
2023/03/27 02:34:04;;;;;;;0.85;0.20;;;7.20;86.70;;;;;;5007809;28;20037;-62
2023/03/27 02:36:29;;;;;;;0.43;0.20;;;7.10;86.20;;;;;;5006810;28;20124;-62
2023/03/27 02:39:04;;;;;;;0.10;0.10;;;7.10;85.70;;;;;;5008080;28;20558;-60
2023/03/27 02:41:37;;;;;;;0.10;0.10;;;7.10;85.50;;;;;;5005618;28;20548;-60
2023/03/27 02:44:11;;;;;;;0.63;0.13;;;7.00;85.40;;;;;;5011625;28;20037;-62
2023/03/27 02:47:06;;;;;;;0.10;0.10;;;7.00;85.40;;;;;;5005783;28;20129;-60
2023/03/27 02:49:56;;;;;;;0.20;0.20;;;7.00;85.30;;;;;;5009636;28;20041;-62
2023/03/27 02:52:40;;;;;;;0.10;0.10;;;6.90;84.80;;;;;;5006458;28;20033;-62
2023/03/27 02:55:19;;;;;;;0.00;0.00;;;6.90;85.00;;;;;;5012717;28;20042;-61
2023/03/27 02:57:50;;;;;;;0.00;0.00;;;6.90;84.90;;;;;;5010226;28;20117;-62
2023/03/27 03:00:24;;;;;;;0.17;0.00;;;6.80;84.50;;;;;;5006524;28;20483;-61
2023/03/27 03:03:26;;;;;;;0.00;0.00;;;6.80;84.10;;;;;;5008173;28;20547;-61
2023/03/27 03:05:56;;;;;;;0.45;0.10;;;6.80;84.50;;;;;;5008314;28;20535;-61
2023/03/27 03:08:22;;;;;;;0.00;0.00;;;6.70;84.00;;;;;;5005725;28;20508;-60
2023/03/27 03:10:48;;;;;;;0.08;0.08;;;6.60;83.90;;;;;;5011225;28;20033;-61
2023/03/27 03:13:15;;;;;;;0.10;0.10;;;6.60;83.90;;;;;;5008511;28;20317;-60
2023/03/27 03:15:41;;;;;;;0.10;0.10;;;6.50;83.70;;;;;;5005084;28;20037;-61
2023/03/27 03:18:07;;;;;;;0.85;0.40;;;6.50;83.80;;;;;;5009339;28;20046;-61
2023/03/27 03:20:34;;;;;;;0.68;0.45;;;6.40;83.70;;;;;;5003183;28;20532;-61
2023/03/27 03:23:00;;;;;;;0.40;0.20;;;6.40;83.70;;;;;;5004972;28;20120;-61
2023/03/27 03:25:25;;;;;;;0.10;0.10;;;6.40;83.40;;;;;;5012419;28;20969;-60
2023/03/27 03:27:57;;;;;;;0.10;0.10;;;6.40;83.10;;;;;;5009961;28;20531;-61
2023/03/27 03:30:28;;;;;;;0.10;0.10;;;6.30;82.50;;;;;;5007240;28;20097;-61
2023/03/27 03:32:55;;;;;;;0.25;0.03;;;6.20;82.60;;;;;;5005877;28;20461;-61
2023/03/27 03:35:23;;;;;;;0.10;0.10;;;6.20;82.70;;;;;;5006017;28;20042;-59
2023/03/27 03:37:50;;;;;;;0.10;0.10;;;6.10;82.60;;;;;;5006733;28;20034;-60
2023/03/27 03:40:18;;;;;;;0.22;0.10;;;6.10;82.80;;;;;;5007817;28;20121;-61
2023/03/27 03:42:48;;;;;;;0.10;0.10;;;6.10;83.20;;;;;;5006390;28;21536;-60
2023/03/27 03:45:15;;;;;;;1.95;0.30;;;6.00;83.00;;;;;;5007614;28;20583;-60
2023/03/27 03:47:41;;;;;;;0.25;0.20;;;6.00;83.20;;;;;;5005454;28;20053;-61
2023/03/27 03:50:09;;;;;;;0.22;0.20;;;6.00;83.40;;;;;;5004486;28;20757;-61
2023/03/27 03:52:34;;;;;;;0.13;0.13;;;5.90;83.40;;;;;;5004550;28;20278;-61
2023/03/27 03:55:00;;;;;;;0.68;0.20;;;6.00;84.00;;;;;;5004980;28;20033;-61
2023/03/27 03:57:26;;;;;;;0.10;0.10;;;5.90;83.90;;;;;;5006472;28;20425;-61
2023/03/27 03:59:52;;;;;;;0.10;0.10;;;5.90;84.00;;;;;;5009753;28;20034;-59
2023/03/27 04:02:27;;;;;;;0.20;0.20;;;5.90;83.90;;;;;;5005132;28;20041;-59
2023/03/27 04:04:58;;;;;;;;;;;5.90;84.00;;;;;;5011115;28;20038;-60
2023/03/27 04:07:30;;;;;;;0.35;0.30;;;5.90;85.40;;;;;;5006943;28;19924;-60
2023/03/27 04:09:57;;;;;;;0.43;0.25;;;5.80;84.00;;;;;;5005593;28;20030;-60
2023/03/27 04:12:22;;;;;;;2.72;0.50;;;5.90;84.00;;;;;;5004315;28;20572;-61
2023/03/27 04:14:48;;;;;;;0.75;0.57;;;5.80;84.00;;;;;;5003326;28;20045;-62
2023/03/27 04:17:14;;;;;;;1.30;0.60;;;5.80;83.90;;;;;;5007557;28;20033;-61
2023/03/27 04:19:40;;;;;;;1.25;0.77;;;5.70;83.70;;;;;;5007537;28;20034;-61
2023/03/27 04:22:06;;;;;;;0.73;0.60;;;5.70;83.50;;;;;;5004004;28;20061;-60
2023/03/27 04:24:32;;;;;;;1.75;0.60;;;5.70;83.80;;;;;;5007895;28;20033;-61
2023/03/27 04:27:00;;;;;;;0.95;0.57;;;5.60;83.70;;;;;;5009202;28;20040;-61
2023/03/27 04:29:29;;;;;;;0.50;0.47;;;5.60;83.70;;;;;;5006644;28;20091;-61
2023/03/27 04:31:56;;;;;;;0.82;0.70;;;5.50;83.90;;;;;;5008077;28;20075;-61
2023/03/27 04:34:22;;;;;;;0.60;0.60;;;5.50;83.90;;;;;;5004918;28;20041;-60
2023/03/27 04:36:49;;;;;;;0.65;0.65;;;5.50;83.90;;;;;;5011675;28;20049;-61
2023/03/27 04:39:16;;;;;;;0.50;0.50;;;5.40;83.50;;;;;;5018368;28;20437;-61
2023/03/27 04:41:48;;;;;;;0.80;0.55;;;5.40;83.80;;;;;;5015558;28;20038;-60
2023/03/27 04:44:17;;;;;;;0.70;0.65;;;5.40;84.10;;;;;;5015514;28;20037;-59
2023/03/27 04:46:43;;;;;;;0.95;0.80;;;5.40;84.20;;;;;;5017817;28;20045;-60
2023/03/27 04:49:10;;;;;;;0.88;0.88;;;5.40;84.20;;;;;;5013818;28;20038;-60
2023/03/27 04:51:35;;;;;;;1.25;0.90;;;5.30;84.20;;;;;;5016477;28;20476;-61
2023/03/27 04:54:04;;;;;;;2.90;1.17;;;5.30;84.50;;;;;;5016054;28;20034;-61
2023/03/27 04:56:32;;;;;;;1.00;0.90;;;5.30;84.60;;;;;;5014807;28;20330;-61
2023/03/27 04:58:58;;;;;;;1.83;0.90;;;5.30;84.70;;;;;;5016611;28;20042;-60
2023/03/27 05:01:24;;;;;;;0.80;0.80;;;5.30;84.60;;;;;;5016961;28;20553;-61
2023/03/27 05:03:50;;;;;;;1.23;1.13;;;5.30;84.60;;;;;;5016549;28;20037;-60
2023/03/27 05:06:16;;;;;;;1.15;0.90;;;5.30;84.60;;;;;;5017249;28;20292;-59
2023/03/27 05:08:41;;;;;;;1.83;1.25;;;5.30;84.60;;;;;;5016261;28;20254;-61
2023/03/27 05:11:07;;;;;;;1.10;1.00;;;5.30;84.10;;;;;;5019337;28;20034;-59
2023/03/27 05:13:33;;;;;;;1.80;1.50;;;5.20;83.90;;;;;;5015719;28;20038;-61
2023/03/27 05:16:00;;;;;;;2.42;1.40;;;5.20;83.90;;;;;;5017165;28;20099;-60
2023/03/27 05:18:29;;;;;;;2.20;1.33;;;5.20;83.90;;;;;;5015691;28;20041;-60
2023/03/27 05:20:55;;;;;;;2.22;1.80;;;5.20;83.90;;;;;;5017425;28;20169;-60
2023/03/27 05:23:21;;;;;;;2.25;1.70;;;5.20;83.90;;;;;;5015332;28;20501;-61
2023/03/27 05:25:47;;;;;;;5.80;2.35;;;5.20;83.60;;;;;;5015315;28;20052;-61
2023/03/27 05:28:12;;;;;;;4.28;2.70;;;5.10;83.30;;;;;;5015886;28;20038;-60
2023/03/27 05:30:38;;;;;;;3.50;2.50;;;5.10;83.20;;;;;;5018030;28;20552;-61
2023/03/27 05:33:03;;;;;;;4.28;2.67;;;5.10;83.00;;;;;;5013871;28;20033;-61
2023/03/27 05:35:29;;;;;;;4.00;2.40;;;5.00;83.00;;;;;;5016599;28;20034;-60
2023/03/27 05:37:56;;;;;;;4.35;2.55;;;5.00;83.40;;;;;;5014541;28;20117;-61
2023/03/27 05:40:24;;;;;;;6.90;2.60;;;5.00;83.30;;;;;;5015922;28;20042;-59
2023/03/27 05:42:51;;;;;;;6.97;2.75;;;5.00;83.20;;;;;;5016021;28;20037;-60
2023/03/27 05:45:17;;;;;;;3.60;2.33;;;5.00;83.20;;;;;;5014815;28;20301;-60
2023/03/27 05:47:54;;;;;;;3.30;2.35;;;5.00;83.20;;;;;;5014949;28;20044;-60
2023/03/27 05:50:27;;;;;;;3.58;2.63;;;5.00;83.20;;;;;;5014132;28;20041;-60
2023/03/27 05:53:00;;;;;;;7.30;2.47;;;5.00;83.20;;;;;;5015141;28;20117;-59
2023/03/27 05:55:26;;;;;;;6.55;3.60;;;5.00;83.30;;;;;;5015469;28;20037;-61
2023/03/27 05:57:52;;;;;;;4.85;2.90;;;5.00;83.20;;;;;;5016328;28;20478;-60
2023/03/27 06:00:24;;;;;;;6.05;2.70;;;5.00;83.20;;;;;;5013895;28;20579;-61
2023/03/27 06:02:52;;;;;;;4.47;2.55;;;5.00;83.10;;;;;;5013299;28;20061;-61
2023/03/27 06:05:18;;;;;;;3.45;2.08;;;5.00;83.00;;;;;;5015368;28;20064;-60
2023/03/27 06:07:45;;;;;;;4.22;2.28;;;5.00;83.00;;;;;;5015870;28;20067;-61
2023/03/27 06:10:15;;;;;;;5.30;2.28;;;5.00;83.10;;;;;;5015799;28;20038;-61
2023/03/27 06:12:41;;;;;;;3.45;1.83;;;4.90;83.00;;;;;;5013323;28;20118;-59
2023/03/27 06:15:08;;;;;;;3.47;2.10;;;5.00;83.10;;;;;;5013941;28;20838;-61
2023/03/27 06:17:34;;;;;;;3.58;2.80;;;4.90;82.80;;;;;;5015556;28;20038;-60
2023/03/27 06:20:01;;;;;;;5.43;2.90;;;4.90;82.80;;;;;;5014731;28;20041;-61
2023/03/27 06:22:27;;;;;;;7.30;3.22;;;4.90;82.50;;;;;;5013526;28;20092;-62
2023/03/27 06:24:52;;;;;;;5.38;2.92;;;4.90;82.40;;;;;;5014983;28;20034;-61
2023/03/27 06:27:19;;;;;;;8.13;3.60;;;4.80;82.40;;;;;;5015381;28;20092;-61
2023/03/27 06:29:46;;;;;;;8.45;3.78;;;4.80;82.60;;;;;;5014554;28;20050;-61
2023/03/27 06:32:12;;;;;;;5.45;3.10;;;4.70;82.80;;;;;;5015793;28;20045;-62
2023/03/27 06:34:38;;;;;;;6.55;2.90;;;4.60;82.60;;;;;;5014492;28;20418;-61
2023/03/27 06:37:04;;;;;;;6.78;2.95;;;4.60;82.80;;;;;;5021120;28;20037;-61
2023/03/27 06:39:29;;;;;;;8.35;3.28;;;4.60;83.20;;;;;;5013509;28;20036;-61
2023/03/27 06:41:55;;;;;;;7.32;3.00;;;4.60;83.30;;;;;;5014458;28;20033;-61
2023/03/27 06:44:21;;;;;;;5.15;2.78;;;4.60;83.30;;;;;;5016010;28;20065;-61
2023/03/27 06:46:46;;;;;;;6.43;2.22;;;4.60;83.30;;;;;;5015883;28;20073;-61
2023/03/27 06:49:12;;;;;;;3.20;2.05;;;4.60;83.20;;;;;;5012159;28;20092;-60
2023/03/27 06:51:38;;;;;;;4.40;2.13;;;4.50;82.90;;;;;;5014677;28;20115;-61
2023/03/27 06:54:04;;;;;;;4.18;1.85;;;4.60;82.80;;;;;;5014627;28;20413;-60
2023/03/27 06:56:29;;;;;;;3.55;1.77;;;4.50;82.30;;;;;;5014106;28;20041;-59
2023/03/27 06:58:55;;;;;;;3.88;1.50;;;4.50;81.60;;;;;;5014304;28;20026;-61
2023/03/27 07:01:21;;;;;;;5.07;1.80;;;4.50;81.80;;;;;;5012671;28;20069;-60
2023/03/27 07:03:47;;;;;;;3.95;1.80;;;4.50;81.10;;;;;;5014162;28;20072;-59
2023/03/27 07:06:13;;;;;;;5.38;2.13;;;4.50;80.60;;;;;;5014224;28;20034;-60
2023/03/27 07:08:38;;;;;;;6.28;2.22;;;4.40;80.70;;;;;;5013591;28;20053;-59
2023/03/27 07:11:04;;;;;;;10.95;2.35;;;4.50;81.40;;;;;;5017198;28;20049;-61
2023/03/27 07:13:30;;;;;;;8.43;2.50;;;4.50;82.00;;;;;;5013689;28;20034;-58
2023/03/27 07:15:56;;;;;;;9.52;2.97;;;4.50;81.40;;;;;;5014582;28;20506;-59
2023/03/27 07:18:22;;;;;;;7.70;2.90;;;4.60;81.80;;;;;;5013619;28;20037;-60
2023/03/27 07:20:49;;;;;;;9.07;3.20;;;4.60;81.10;;;;;;5014350;28;20041;-60
2023/03/27 07:23:15;;;;;;;8.80;2.63;;;4.60;80.80;;;;;;5016203;28;20030;-61
2023/03/27 07:25:40;;;;;;;10.30;2.53;;;4.60;80.40;;;;;;5016180;28;20033;-60
2023/03/27 07:28:13;;;;;;;6.53;2.47;;;4.60;79.90;;;;;;5016558;28;20065;-61
2023/03/27 07:30:40;;;;;;;7.00;2.55;;;4.50;78.90;;;;;;5016065;28;20702;-61
2023/03/27 07:33:08;;;;;;;9.60;2.50;;;4.50;78.50;;;;;;5014843;28;20025;-62
2023/03/27 07:35:39;;;;;;;9.75;3.00;;;4.40;78.60;;;;;;5013849;28;20040;-61
2023/03/27 07:38:04;;;;;;;15.20;3.40;;;4.30;79.10;;;;;;5011988;28;20565;-61
2023/03/27 07:40:32;;;;;;;9.43;3.03;;;4.30;79.20;;;;;;5012227;28;20440;-60
2023/03/27 07:42:57;;;;;;;12.70;2.70;;;4.20;78.60;;;;;;5012991;28;20038;-61
2023/03/27 07:45:23;;;;;;;8.02;2.50;;;4.10;78.30;;;;;;5013038;28;20092;-60
2023/03/27 07:47:49;;;;;;;6.45;2.50;;;4.10;78.50;;;;;;5012259;28;20561;-61
2023/03/27 07:50:17;;;;;;;14.10;3.13;;;4.00;78.60;;;;;;5012139;28;20040;-60
2023/03/27 07:52:44;;;;;;;13.35;3.15;;;4.00;78.80;;;;;;5012757;28;20061;-61
2023/03/27 07:55:13;;;;;;;11.85;3.30;;;3.90;78.80;;;;;;5011777;28;20030;-61
2023/03/27 07:57:45;;;;;;;8.38;3.22;;;3.90;78.90;;;;;;5012279;28;20104;-61
2023/03/27 08:00:12;;;;;;;9.18;3.40;;;3.90;78.60;;;;;;5011369;28;20052;-61
2023/03/27 08:02:38;;;;;;;10.90;3.72;;;3.80;78.90;;;;;;5008224;28;20046;-61
2023/03/27 08:05:07;;;;;;;10.35;3.00;;;3.80;78.90;;;;;;5014828;28;20552;-61
2023/03/27 08:07:36;;;;;;;13.90;3.70;;;3.80;78.60;;;;;;5013265;28;20037;-61
2023/03/27 08:10:05;;;;;;;16.65;3.42;;;3.80;78.90;;;;;;5013760;28;20127;-60
2023/03/27 08:12:31;;;;;;;13.10;3.47;;;3.80;79.10;;;;;;5013786;28;20080;-61
2023/03/27 08:14:57;;;;;;;7.85;2.80;;;3.80;79.00;;;;;;5015065;28;20052;-61
2023/03/27 08:17:26;;;;;;;8.15;3.15;;;3.70;79.00;;;;;;5014111;28;20452;-61
2023/03/27 08:19:52;;;;;;;9.68;3.63;;;3.80;79.00;;;;;;5014051;28;20113;-60
2023/03/27 08:22:19;;;;;;;10.57;3.35;;;3.70;78.90;;;;;;5011944;28;20119;-61
2023/03/27 08:24:46;;;;;;;6.32;2.72;;;3.70;79.40;;;;;;5013678;28;20094;-60
2023/03/27 08:27:12;;;;;;;8.05;2.72;;;3.70;79.30;;;;;;5012444;28;20117;-59
2023/03/27 08:29:38;;;;;;;9.88;3.15;;;3.70;79.20;;;;;;5013418;28;20125;-60
2023/03/27 08:32:05;;;;;;;11.82;2.83;;;3.70;78.80;;;;;;5014978;28;20156;-60
2023/03/27 08:34:30;;;;;;;9.60;3.03;;;3.70;78.90;;;;;;5013606;28;20038;-60
2023/03/27 08:36:56;;;;;;;14.63;3.33;;;3.70;79.00;;;;;;5011488;28;20061;-60
2023/03/27 08:39:22;;;;;;;16.33;3.60;;;3.70;79.20;;;;;;5012701;28;20038;-60
2023/03/27 08:41:53;;;;;;;11.55;3.13;;;3.70;78.70;;;;;;5011897;28;20046;-59
2023/03/27 08:44:22;;;;;;;8.82;3.17;;;3.70;78.70;;;;;;5013621;28;20482;-59
2023/03/27 08:46:59;;;;;;;10.48;3.60;;;3.70;78.80;;;;;;5014138;28;20888;-59
2023/03/27 08:49:37;;;;;;;7.85;2.80;;;3.70;78.60;;;;;;5012246;28;20091;-60
2023/03/27 08:52:14;;;;;;;8.60;3.00;;;3.80;78.60;;;;;;5016224;28;20160;-60
2023/03/27 08:54:43;;;;;;;12.27;3.03;;;3.80;78.10;;;;;;5014393;28;20569;-59
2023/03/27 08:57:19;;;;;;;6.93;2.80;;;3.80;77.80;;;;;;5011166;28;20048;-60
2023/03/27 08:59:46;;;;;;;12.93;2.90;;;3.80;77.80;;;;;;5015334;28;20116;-59
2023/03/27 09:02:47;;;;;;;8.30;2.97;;;3.60;77.80;;;;;;5015684;28;20116;-60
2023/03/27 09:05:12;;;;;;;8.13;2.80;;;3.80;77.60;;;;;;5012724;28;20429;-59
2023/03/27 09:08:04;;;;;;;6.95;2.67;;;3.80;77.50;;;;;;5013723;28;20044;-59
2023/03/27 09:10:29;;;;;;;12.02;3.00;;;3.80;77.30;;;;;;5013744;28;20061;-60
2023/03/27 09:13:15;;;;;;;5.55;2.22;;;3.80;77.00;;;;;;5010970;28;20434;-60
2023/03/27 09:15:59;;;;;;;7.25;2.67;;;3.80;77.60;;;;;;5012547;28;20038;-59
2023/03/27 09:18:47;;;;;;;6.93;2.80;;;3.80;77.60;;;;;;5016162;28;20547;-59
2023/03/27 09:21:18;;;;;;;12.50;3.50;;;3.80;77.10;;;;;;5017273;28;20470;-58
2023/03/27 09:23:45;;;;;;;9.07;2.38;;;3.90;77.40;;;;;;5018138;28;20038;-60
2023/03/27 09:26:16;;;;;;;14.07;3.03;;;3.90;76.80;;;;;;5017858;28;20046;-60
2023/03/27 09:28:50;;;;;;;10.18;2.70;;;3.90;76.90;;;;;;5016862;28;20038;-60
2023/03/27 09:31:21;;;;;;;6.57;2.30;;;3.70;76.90;;;;;;5017109;28;20026;-61
2023/03/27 09:33:47;;;;;;;10.50;3.20;;;3.90;77.10;;;;;;5016609;28;20037;-61
2023/03/27 09:36:12;;;;;;;6.68;2.45;;;3.90;76.90;;;;;;5016153;28;20092;-60
2023/03/27 09:38:43;;;;;;;11.20;2.92;;;3.90;76.60;;;;;;5016870;28;20080;-60
2023/03/27 09:41:23;;;;;;;10.90;2.67;;;3.90;76.40;;;;;;5016319;28;20472;-59
2023/03/27 09:44:04;;;;;;;9.25;2.67;;;3.90;76.20;;;;;;5015383;28;20083;-59
2023/03/27 09:46:32;;;;;;;10.10;2.90;;;3.90;76.50;;;;;;5030392;28;20042;-60
2023/03/27 09:49:13;;;;;;;9.13;2.75;;;3.90;76.50;;;;;;5016841;28;20042;-60
2023/03/27 09:51:55;;;;;;;14.77;2.72;;;3.90;76.20;;;;;;5018245;28;21258;-60
2023/03/27 09:54:27;;;;;;;12.43;3.38;;;4.00;76.20;;;;;;5016039;28;20572;-60
2023/03/27 09:57:10;;;;;;;8.63;2.58;;;4.00;75.90;;;;;;5015177;28;20456;-61
2023/03/27 09:59:39;;;;;;;9.43;2.63;;;4.00;75.20;;;;;;5016233;28;20430;-60
2023/03/27 10:02:22;;;;;;;7.93;2.70;;;4.00;75.70;;;;;;5016648;28;20034;-61
2023/03/27 10:05:00;;;;;;;6.90;2.50;;;4.00;76.00;;;;;;5015499;28;20045;-61
2023/03/27 10:07:26;;;;;;;7.70;2.85;;;4.10;76.20;;;;;;5016134;28;20524;-60
2023/03/27 10:10:10;;;;;;;8.77;2.50;;;4.10;76.30;;;;;;5017321;28;20118;-60
2023/03/27 10:12:37;;;;;;;7.00;2.60;;;4.20;75.40;;;;;;5015905;28;20107;-61
2023/03/27 10:15:34;;;;;;;7.93;2.28;;;4.20;75.80;;;;;;5018164;28;20072;-60
2023/03/27 10:18:03;;;;;;;5.90;2.60;;;4.40;74.00;;;;;;5014978;28;20041;-60
2023/03/27 10:20:29;;;;;;;7.85;2.70;;;4.40;75.00;;;;;;5017188;28;20081;-60
2023/03/27 10:23:07;;;;;;;6.50;2.60;;;4.40;75.10;;;;;;5014975;28;20033;-60
2023/03/27 10:25:38;;;;;;;8.57;2.35;;;4.50;74.90;;;;;;5014715;28;20042;-60
2023/03/27 10:28:16;;;;;;;8.93;2.42;;;4.60;74.10;;;;;;5016406;28;20437;-61
2023/03/27 10:30:41;;;;;;;3.80;2.25;;;4.70;73.70;;;;;;5012357;28;20088;-61
2023/03/27 10:33:08;;;;;;;8.23;2.40;;;4.90;74.30;;;;;;5018397;28;20057;-60
2023/03/27 10:35:42;;;;;;;9.57;2.80;;;5.00;74.70;;;;;;5015506;28;20072;-60
2023/03/27 10:38:16;;;;;;;8.63;2.33;;;5.10;72.60;;;;;;5014272;28;20120;-59
2023/03/27 10:40:47;;;;;;;6.43;2.60;;;5.20;72.00;;;;;;5015287;28;20044;-60
2023/03/27 10:43:26;;;;;;;9.48;2.60;;;5.20;71.70;;;;;;5016680;28;20080;-59
2023/03/27 10:46:13;;;;;;;7.38;2.03;;;5.20;72.00;;;;;;5016767;28;20272;-59
2023/03/27 10:48:41;;;;;;;13.60;2.13;;;5.20;71.70;;;;;;5013948;28;20540;-59
2023/03/27 10:51:28;;;;;;;7.28;2.30;;;5.30;71.30;;;;;;5016393;28;20564;-59
2023/03/27 10:53:56;;;;;;;6.40;1.88;;;5.30;70.80;;;;;;5013998;28;20038;-59
2023/03/27 10:56:44;;;;;;;6.60;1.77;;;5.30;69.60;;;;;;5013651;28;20032;-61
2023/03/27 10:59:23;;;;;;;7.05;2.00;;;5.30;68.70;;;;;;5016198;28;20095;-60
2023/03/27 11:01:54;;;;;;;6.53;2.05;;;5.40;70.00;;;;;;5015195;28;20034;-60
2023/03/27 11:04:30;;;;;;;7.30;1.90;;;5.50;70.50;;;;;;5015627;28;20438;-60
2023/03/27 11:06:59;;;;;;;7.78;1.92;;;5.60;70.30;;;;;;5016564;28;20498;-60
2023/03/27 11:09:41;;;;;;;8.25;2.05;;;5.60;69.50;;;;;;5015515;28;20037;-59
2023/03/27 11:12:13;;;;;;;10.50;2.25;;;5.60;68.20;;;;;;5015409;28;20050;-60
2023/03/27 11:14:47;;;;;;;9.80;2.03;;;5.70;68.40;;;;;;5012902;28;20053;-60
2023/03/27 11:17:17;;;;;;;8.10;1.90;;;5.70;68.00;;;;;;5014890;28;20434;-60
2023/03/27 11:19:53;;;;;;;6.10;1.58;;;5.70;68.60;;;;;;5015900;28;20412;-59
2023/03/27 11:22:50;;;;;;;6.80;1.52;;;5.80;67.90;;;;;;5014768;28;20042;-60
2023/03/27 11:25:17;;;;;;;4.20;1.88;;;5.80;66.30;;;;;;5013614;28;20085;-59
2023/03/27 11:28:02;;;;;;;3.30;1.50;;;5.80;67.30;;;;;;5015790;28;20049;-59
2023/03/27 11:30:36;;;;;;;9.48;2.00;;;5.90;65.90;;;;;;5013629;28;20125;-60
2023/03/27 11:33:17;;;;;;;4.60;1.50;;;5.90;66.50;;;;;;5016148;28;20560;-60
2023/03/27 11:35:50;;;;;;;5.13;1.65;;;6.00;67.00;;;;;;5012278;28;20041;-61
2023/03/27 11:38:31;;;;;;;3.28;1.30;;;6.10;65.20;;;;;;5014241;28;20038;-61
2023/03/27 11:40:57;;;;;;;3.80;1.50;;;6.20;64.90;;;;;;5013972;28;20033;-61
2023/03/27 11:43:23;;;;;;;4.20;1.33;;;6.20;64.50;;;;;;5016002;28;20045;-61
2023/03/27 11:46:00;;;;;;;4.72;1.40;;;6.30;63.70;;;;;;5015643;28;20041;-61
2023/03/27 11:48:40;;;;;;;3.47;1.17;;;6.30;61.10;;;;;;5013659;28;20513;-61
2023/03/27 11:51:35;;;;;;;5.40;1.10;;;6.40;59.20;;;;;;5012150;28;20441;-61
2023/03/27 11:54:18;;;;;;;5.07;1.50;;;6.40;58.80;;;;;;5015388;28;20123;-59
2023/03/27 11:56:53;;;;;;;3.85;1.20;;;6.40;58.20;;;;;;5014008;28;20042;-60
2023/03/27 11:59:52;;;;;;;4.57;1.20;;;6.40;57.70;;;;;;5015696;28;20038;-61
2023/03/27 12:02:18;;;;;;;5.25;1.10;;;6.40;57.80;;;;;;5016491;28;20489;-60
2023/03/27 12:04:54;;;;;;;6.18;1.38;;;6.40;58.80;;;;;;5011693;28;20129;-61
2023/03/27 12:07:43;;;;;;;5.72;1.40;;;6.50;58.50;;;;;;5016115;28;20037;-60
2023/03/27 12:10:34;;;;;;;5.78;0.90;;;6.50;58.00;;;;;;5013457;28;20535;-61
2023/03/27 12:13:04;;;;;;;3.05;0.98;;;6.50;57.70;;;;;;5013797;28;20084;-61
2023/03/27 12:15:57;;;;;;;4.47;0.98;;;6.50;56.80;;;;;;5013184;28;20037;-59
2023/03/27 12:18:45;;;;;;;5.03;1.23;;;6.50;56.80;;;;;;5014543;28;20291;-60
2023/03/27 12:21:42;;;;;;;2.65;0.82;;;6.60;55.50;;;;;;5011462;28;20042;-60
2023/03/27 12:24:20;;;;;;;5.57;1.30;;;6.70;56.20;;;;;;5013698;28;20034;-60
2023/03/27 12:27:09;;;;;;;4.70;1.13;;;6.70;56.10;;;;;;5014731;28;20096;-59
2023/03/27 12:29:47;;;;;;;3.55;1.10;;;6.80;56.30;;;;;;5013093;28;20049;-60
2023/03/27 12:32:30;;;;;;;7.63;1.63;;;6.90;55.50;;;;;;5014654;28;20558;-58
2023/03/27 12:35:06;;;;;;;4.05;0.93;;;6.90;56.60;;;;;;5012623;28;20061;-60
2023/03/27 12:37:49;;;;;;;2.65;1.10;;;7.00;55.70;;;;;;5014784;28;20034;-59
2023/03/27 12:40:47;;;;;;;4.07;1.30;;;7.00;55.70;;;;;;5012988;28;20077;-60
2023/03/27 12:43:27;;;;;;;2.75;1.10;;;7.00;55.20;;;;;;5012544;28;20045;-61
2023/03/27 12:46:14;;;;;;;1.02;0.70;;;7.10;54.50;;;;;;5013989;28;20560;-59
2023/03/27 12:48:53;;;;;;;4.88;0.85;;;7.10;52.10;;;;;;5012938;28;20041;-59
2023/03/27 12:51:33;;;;;;;1.27;0.65;;;7.10;51.90;;;;;;5016088;28;20029;-59
2023/03/27 12:54:14;;;;;;;1.50;0.52;;;7.10;53.00;;;;;;5017559;28;20034;-60
2023/03/27 12:56:40;;;;;;;2.42;0.80;;;7.20;51.70;;;;;;5018910;28;20084;-59
2023/03/27 12:59:18;;;;;;;2.90;0.80;;;7.20;53.00;;;;;;5020591;28;20401;-59
2023/03/27 13:01:47;;;;;;;2.83;0.80;;;7.20;53.20;;;;;;5018074;28;20032;-60
2023/03/27 13:04:43;;;;;;;6.95;1.27;;;7.20;54.20;;;;;;5015708;28;20034;-59
2023/03/27 13:07:15;;;;;;;3.30;1.10;;;7.30;53.70;;;;;;5016944;28;20033;-60
2023/03/27 13:09:55;;;;;;;4.15;0.93;;;7.40;54.30;;;;;;5017332;28;20044;-58
2023/03/27 13:12:21;;;;;;;4.55;1.02;;;7.50;53.30;;;;;;5017542;28;20038;-60
2023/03/27 13:15:01;;;;;;;5.38;1.30;;;7.50;53.40;;;;;;5015901;28;20071;-60
2023/03/27 13:17:52;;;;;;;1.98;0.60;;;7.50;54.00;;;;;;5017668;28;20049;-60
2023/03/27 13:20:26;;;;;;;6.07;1.10;;;7.50;52.20;;;;;;5018534;28;20108;-60